Terminal Aerodrome Forecast
Issued by NWS

Home | Current Version | Previous Version | Text Only | Print | Product List | Glossary On
Versions: 1 2 3 4 5 6 7 8 9 10 11 12 13 14 15 16 17 18
000
FTUS43 KSGF 011700
TAFBBG
TAF
KBBG 011725Z 0118/0218 27012KT 4SM -RADZ OVC008
     FM011900 30014G23KT P6SM OVC015
     FM020100 31012G18KT P6SM OVC020
     FM020500 31010KT P6SM OVC020
     FM021500 31006KT P6SM SCT030=

USA.gov is the U.S. government's official web portal to all federal, state and local government web resources and services.